NCAR-RAP Real-Time Weather Data

Output produced by METARs form (17 October 2018  16:01 UTC)
found at http://weather.rap.ucar.edu/surface/
 
RJOO 171100Z 34008KT 310V010 9999 FEW035 BKN/// 18/10 Q1013
RJOO 171000Z 35011KT 9999 FEW035 SCT/// 18/09 Q1013 WS R32L RMK 1CU035 A2992
RJOO 170900Z 01005KT 310V060 9999 FEW030 SCT100 BKN/// 19/09 Q1012 RMK 1CU030 3AC100 A2989
RJOO 170800Z 36010KT 9999 FEW030 SCT100 BKN/// 20/09 Q1012 RMK 1CU030 4AC100 A2989
RJOO 170700Z 36009KT 9999 FEW030 SCT090 BKN/// 20/08 Q1011
RJOO 170600Z 35011KT 9999 FEW030 SCT045 BKN070 22/09 Q1010 RMK 1CU030 3CU045 5AC070 A2985
RJOO 170500Z 35015KT 9999 FEW030 SCT050 BKN/// 21/08 Q1011 RMK 1CU030 3SC050 A2985
RJOO 170400Z 34008KT 310V020 9999 FEW025 SCT050 BKN/// 23/07 Q1010 RMK 1CU025 3SC050 A2984
RJOO 170300Z 34007KT 9999 FEW025 SCT050 BKN/// 22/06 Q1011 RMK 1CU025 3SC050 A2986
RJOO 170200Z 32005KT 280V020 9999 FEW025 BKN/// 22/07 Q1011 RMK 1CU025 A2987
RJOO 170100Z 33006KT 280V360 9999 FEW025 BKN/// 20/08 Q1011
RJOO 170000Z 32006KT 9999 FEW025 BKN140 20/09 Q1012 RMK 1CU025 5AC140 A2990
RJOO 162300Z 32006KT 9999 FEW025 SCT140 18/11 Q1012 RMK 1CU025 3AC140 A2989
RJOO 162200Z 32004KT 290V350 9999 FEW025 SCT100 17/12 Q1011 RMK 1CU025 3AC100 A2987
RJOO 162100Z 34003KT 9999 FEW020 SCT060 BKN080 16/12 Q1011 RMK 1CU020 3SC060 6AC080 A2987
RJOO 162000Z 01004KT 9999 FEW020 BKN070 16/12 Q1011 RMK 1CU020 7AC070 A2986
RJOO 161100Z 34008KT 9999 FEW025 SCT045 BKN140 20/10 Q1011 RMK 1CU025 3SC045 5AC140 A2986
RJOO 161000Z 02005KT 9999 FEW025 SCT045 BKN130 21/09 Q1011 RMK 1CU025 4SC045 5AC130 A2986
RJOO 160900Z 02005KT 9999 FEW025 SCT130 BKN150 21/09 Q1010 RMK 1CU025 3AC130 5AC150 A2985
RJOO 160800Z 06006KT 9999 FEW030 SCT140 BKN160 22/07 Q1010 RMK 1CU030 4AC140 5AC160 A2984
RJOO 160700Z 02005KT 9999 FEW030 BKN150 BKN/// 22/08 Q1011
RJOO 160600Z 04003KT 310V120 9999 FEW030 SCT050 BKN/// 23/10 Q1011 RMK 1CU030 3SC050 A2987
RJOO 160500Z 07005KT 9999 FEW030 SCT060 BKN/// 22/11 Q1011 RMK 1CU030 3SC060 A2987
RJOO 160400Z 08004KT 050V120 9999 FEW030 SCT140 BKN/// 22/10 Q1012 RMK 1CU030 3AC140 A2990
RJOO 160300Z 11003KT 040V180 9999 FEW025 BKN/// 21/11 Q1013 RMK 1CU025 A2992
RJOO 160200Z 08003KT 040V180 9999 FEW025 SCT140 BKN/// 20/11 Q1014 RMK 1CU025 3AC140 A2995
RJOO 160100Z 09003KT 360V160 9999 FEW025 SCT100 BKN/// 19/12 Q1015 RMK 1CU025 3AC100 A2998
RJOO 160000Z 09003KT 340V130 9999 FEW025 SCT100 BKN/// 18/12 Q1015 RMK 1CU025 3AC100 A2999
RJOO 152300Z 06003KT 010V090 9999 FEW025 BKN/// 17/12 Q1015 RMK 1CU025 A3000
RJOO 152200Z 05004KT 9999 FEW025 BKN/// 16/13 Q1015 RMK 1CU025 A3000
RJOO 152100Z VRB02KT 9999 FEW025 BKN/// 16/12 Q1016 RMK 1CU025 A3000
RJOO 152000Z 33002KT 9999 FEW025 SCT/// 14/12 Q1016 RMK 1CU025 A3001
RJOO 151100Z 05006KT 360V080 9999 FEW030 BKN/// 19/12 Q1016
RJOO 151000Z 08003KT 020V120 9999 FEW030 BKN/// 20/12 Q1016 RMK 1CU030 A3002
RJOO 150900Z VRB02KT 9999 FEW030 BKN/// 21/10 Q1015 RMK 1CU030 A3000
RJOO 150800Z 23003KT 210V270 9999 FEW030 BKN/// 22/10 Q1015 RMK 1CU030 A2999
RJOO 150700Z 23004KT 180V280 9999 FEW030 BKN/// 23/09 Q1015 RMK 1CU030 A2999
RJOO 150600Z VRB03KT 9999 FEW030 BKN/// 23/09 Q1015 RMK 1CU030 A2999
RJOO 150500Z 21003KT 160V250 9999 FEW030 BKN/// 24/09 Q1015 RMK 1CU030 A3000